createdAt,value
2022-08-26T00:02:11.806Z,24.70
2022-08-26T00:04:40.103Z,24.60
2022-08-26T00:07:09.783Z,24.64
2022-08-26T00:09:40.066Z,24.67
2022-08-26T00:12:12.242Z,24.64
2022-08-26T00:14:41.494Z,24.65
2022-08-26T00:17:10.010Z,24.65
2022-08-26T00:19:39.034Z,24.69
2022-08-26T00:22:07.479Z,24.77
2022-08-26T00:24:37.021Z,24.77
2022-08-26T00:27:06.434Z,24.80
2022-08-26T00:29:37.502Z,24.80
2022-08-26T00:32:06.660Z,24.76
2022-08-26T00:34:35.282Z,24.72
2022-08-26T00:37:03.461Z,24.73
2022-08-26T00:39:31.654Z,24.69
2022-08-26T00:42:01.625Z,24.76
2022-08-26T00:44:30.470Z,24.71
2022-08-26T00:47:02.414Z,24.74
2022-08-26T00:49:39.061Z,24.73
2022-08-26T00:52:12.037Z,24.66
2022-08-26T00:54:47.028Z,24.70
2022-08-26T00:57:19.518Z,24.70
2022-08-26T00:59:50.322Z,24.74
2022-08-26T01:02:21.319Z,24.74
2022-08-26T01:04:54.396Z,24.69
2022-08-26T01:07:27.453Z,24.64
2022-08-26T01:09:59.618Z,24.73
2022-08-26T01:12:30.424Z,24.67
2022-08-26T01:14:58.677Z,24.73
2022-08-26T01:17:27.265Z,24.68
2022-08-26T01:20:01.309Z,24.75
2022-08-26T01:22:34.122Z,24.71
2022-08-26T01:25:05.545Z,24.83
2022-08-26T01:27:35.440Z,24.60
2022-08-26T01:30:05.447Z,24.65
2022-08-26T01:32:36.410Z,24.72
2022-08-26T01:35:08.789Z,24.68
2022-08-26T01:37:40.472Z,24.53
2022-08-26T01:40:17.845Z,24.61
2022-08-26T01:42:49.228Z,24.60
2022-08-26T01:45:22.402Z,24.25
2022-08-26T01:47:57.110Z,24.46
2022-08-26T01:50:30.638Z,24.43
2022-08-26T01:53:01.770Z,24.34
2022-08-26T01:55:33.563Z,24.31
2022-08-26T01:58:06.726Z,24.33
2022-08-26T02:00:36.167Z,24.24
2022-08-26T02:03:18.824Z,24.09
2022-08-26T02:05:48.724Z,24.22
2022-08-26T02:08:24.688Z,24.14
2022-08-26T02:10:55.262Z,24.20
2022-08-26T02:13:26.522Z,24.21
2022-08-26T02:15:55.942Z,24.19
2022-08-26T02:18:24.911Z,24.13
2022-08-26T02:20:55.559Z,24.13
2022-08-26T02:23:24.388Z,24.18
2022-08-26T02:25:57.994Z,24.19
2022-08-26T02:28:29.779Z,24.24
2022-08-26T02:30:57.868Z,24.18
2022-08-26T02:33:29.163Z,24.23
2022-08-26T02:35:57.326Z,24.19
2022-08-26T02:38:26.143Z,24.18
2022-08-26T02:40:55.669Z,24.17
2022-08-26T02:43:31.258Z,24.15
2022-08-26T02:46:02.421Z,24.07
2022-08-26T02:48:30.983Z,23.98
2022-08-26T02:51:00.737Z,23.94
2022-08-26T02:53:31.943Z,24.01
2022-08-26T02:56:05.732Z,23.95
2022-08-26T02:58:33.780Z,23.86
2022-08-26T03:01:02.174Z,23.87
2022-08-26T03:03:33.515Z,23.86
2022-08-26T03:06:01.509Z,23.85
2022-08-26T03:08:29.517Z,23.85
2022-08-26T03:10:57.594Z,23.91
2022-08-26T03:13:26.977Z,23.73
2022-08-26T03:15:55.222Z,23.82
2022-08-26T03:18:24.183Z,23.75
2022-08-26T03:20:52.195Z,23.70
2022-08-26T03:23:20.170Z,23.78
2022-08-26T03:25:51.043Z,23.85
2022-08-26T03:28:19.738Z,23.80
2022-08-26T03:30:49.297Z,23.81
2022-08-26T03:33:19.287Z,23.75
2022-08-26T03:35:50.671Z,23.89
2022-08-26T03:38:19.848Z,23.89
2022-08-26T03:40:48.032Z,23.94
2022-08-26T03:43:17.333Z,23.81
2022-08-26T03:45:46.448Z,23.82
2022-08-26T03:48:16.203Z,23.80
2022-08-26T03:50:44.269Z,23.73
2022-08-26T03:53:12.795Z,23.78
2022-08-26T03:55:42.355Z,23.79
2022-08-26T03:58:11.302Z,23.76
2022-08-26T04:00:39.503Z,23.73
2022-08-26T04:03:09.705Z,23.81
2022-08-26T04:05:39.713Z,23.72
2022-08-26T04:08:07.956Z,23.71
2022-08-26T04:10:38.977Z,23.75
2022-08-26T04:13:07.359Z,23.73
2022-08-26T04:15:35.556Z,23.71
2022-08-26T04:18:04.247Z,23.82
2022-08-26T04:20:32.297Z,23.76
2022-08-26T04:23:01.691Z,23.76
2022-08-26T04:25:29.973Z,23.85
2022-08-26T04:27:58.121Z,23.76
2022-08-26T04:30:26.208Z,23.74
2022-08-26T04:32:54.220Z,23.82
2022-08-26T04:35:25.701Z,23.84
2022-08-26T04:37:55.466Z,23.85
2022-08-26T04:40:27.558Z,23.79
2022-08-26T04:42:56.432Z,23.89
2022-08-26T04:45:25.303Z,23.94
2022-08-26T04:47:57.404Z,23.99
2022-08-26T04:50:27.011Z,23.96
2022-08-26T04:52:56.207Z,23.93
2022-08-26T04:55:38.301Z,24.01
2022-08-26T04:58:10.325Z,24.07
2022-08-26T05:00:38.902Z,24.09
2022-08-26T05:03:07.777Z,24.16
2022-08-26T05:05:40.134Z,24.08
2022-08-26T05:08:08.486Z,24.11
2022-08-26T05:10:42.289Z,24.10
2022-08-26T05:13:13.470Z,24.21
2022-08-26T05:15:43.818Z,24.26
2022-08-26T05:18:13.890Z,24.39
2022-08-26T05:20:42.628Z,24.31
2022-08-26T05:23:10.746Z,24.34
2022-08-26T05:25:40.585Z,24.31
2022-08-26T05:28:10.205Z,24.35
2022-08-26T05:30:38.741Z,24.18
2022-08-26T05:33:07.238Z,24.31
2022-08-26T05:35:35.356Z,24.37
2022-08-26T05:38:10.389Z,24.32
2022-08-26T05:40:42.929Z,24.44
2022-08-26T05:43:13.564Z,24.42
2022-08-26T05:45:46.057Z,24.49
2022-08-26T05:48:16.111Z,24.57
2022-08-26T05:50:46.187Z,24.52
2022-08-26T05:53:17.455Z,24.62
2022-08-26T05:55:47.698Z,24.64
2022-08-26T05:58:20.185Z,24.71
2022-08-26T06:00:57.324Z,24.75
2022-08-26T06:03:25.384Z,24.71
2022-08-26T06:05:53.707Z,24.57
2022-08-26T06:08:21.853Z,24.58
2022-08-26T06:10:52.620Z,24.63
2022-08-26T06:13:23.790Z,24.64
2022-08-26T06:15:52.859Z,24.72
2022-08-26T06:18:23.262Z,24.62
2022-08-26T06:20:57.858Z,24.68
2022-08-26T06:23:45.419Z,24.62
2022-08-26T06:26:13.967Z,24.63
2022-08-26T06:28:45.548Z,24.60
2022-08-26T06:31:14.839Z,24.54
2022-08-26T06:33:43.539Z,24.66
2022-08-26T06:36:17.320Z,24.69
2022-08-26T06:38:47.423Z,24.73
2022-08-26T06:41:16.255Z,24.76
2022-08-26T06:43:45.668Z,24.85
2022-08-26T06:46:16.087Z,24.79
2022-08-26T06:48:44.593Z,24.88
2022-08-26T06:51:15.047Z,24.71
2022-08-26T06:53:45.647Z,24.65
2022-08-26T06:56:15.881Z,24.83
2022-08-26T06:58:45.279Z,25.02
2022-08-26T07:01:20.202Z,25.03
2022-08-26T07:03:51.012Z,25.05
2022-08-26T07:06:20.714Z,25.07
2022-08-26T07:08:48.828Z,25.19
2022-08-26T07:11:18.990Z,25.20
2022-08-26T07:13:49.085Z,25.44
2022-08-26T07:16:19.202Z,25.50
2022-08-26T07:18:48.621Z,25.58
2022-08-26T07:21:18.402Z,25.49
2022-08-26T07:23:46.936Z,25.46
2022-08-26T07:26:17.422Z,25.54
2022-08-26T07:28:47.249Z,25.61
2022-08-26T07:31:18.835Z,25.44
2022-08-26T07:33:47.141Z,25.43
2022-08-26T07:36:16.294Z,25.61
2022-08-26T07:38:45.468Z,25.75
2022-08-26T07:41:14.375Z,25.72
2022-08-26T07:43:43.792Z,25.85
2022-08-26T07:46:16.480Z,25.86
2022-08-26T07:48:46.744Z,25.88
2022-08-26T07:51:15.635Z,25.85
2022-08-26T07:53:43.789Z,25.79
2022-08-26T07:56:16.637Z,25.82
2022-08-26T07:58:47.699Z,25.86
2022-08-26T08:01:18.651Z,25.86
2022-08-26T08:03:51.564Z,25.95
2022-08-26T08:06:21.006Z,26.00
2022-08-26T08:08:51.662Z,26.01
2022-08-26T08:11:21.263Z,26.00
2022-08-26T08:13:52.357Z,25.90
2022-08-26T08:16:26.296Z,25.87
2022-08-26T08:18:56.503Z,25.93
2022-08-26T08:21:25.752Z,25.97
2022-08-26T08:23:55.506Z,25.92
2022-08-26T08:26:24.910Z,25.98
2022-08-26T08:28:56.302Z,26.04
2022-08-26T08:34:18.178Z,26.12
2022-08-26T08:36:46.877Z,26.22
2022-08-26T08:39:14.918Z,26.19
2022-08-26T08:41:54.426Z,26.20
2022-08-26T08:47:02.658Z,26.16
2022-08-26T08:49:33.825Z,26.04
2022-08-26T08:52:05.991Z,26.16
2022-08-26T08:54:34.095Z,26.17
2022-08-26T08:57:08.953Z,26.19
2022-08-26T08:59:41.153Z,26.30
2022-08-26T09:02:22.384Z,26.44
2022-08-26T09:05:07.096Z,26.50
2022-08-26T09:07:39.954Z,26.63
2022-08-26T09:10:28.209Z,26.51
2022-08-26T09:12:56.672Z,26.62
2022-08-26T09:15:30.402Z,26.69
2022-08-26T09:18:10.895Z,26.54
2022-08-26T09:20:50.580Z,26.84
2022-08-26T09:23:19.202Z,27.03
2022-08-26T09:25:49.998Z,27.11
2022-08-26T09:28:19.995Z,27.26
2022-08-26T09:30:59.132Z,27.29
2022-08-26T09:33:30.305Z,27.38
2022-08-26T09:38:52.529Z,27.59
2022-08-26T09:41:25.781Z,27.68
2022-08-26T09:44:19.157Z,27.73
2022-08-26T09:46:55.435Z,27.75
2022-08-26T09:49:35.602Z,27.94
2022-08-26T09:52:23.528Z,28.12
2022-08-26T09:55:06.385Z,28.20
2022-08-26T09:57:37.337Z,28.21
2022-08-26T10:00:25.986Z,28.19
2022-08-26T10:02:57.401Z,27.85
2022-08-26T10:05:33.845Z,27.94
2022-08-26T10:08:15.848Z,27.71
2022-08-26T10:10:46.463Z,27.98
2022-08-26T10:13:23.420Z,27.98
2022-08-26T10:15:59.822Z,28.12
2022-08-26T10:18:33.885Z,28.11
2022-08-26T10:21:08.529Z,28.39
2022-08-26T10:26:24.828Z,28.60
2022-08-26T10:28:57.708Z,28.63
2022-08-26T10:31:40.277Z,28.73
2022-08-26T10:34:13.873Z,28.59
2022-08-26T10:37:15.478Z,28.64
2022-08-26T10:39:57.355Z,28.67
2022-08-26T10:42:37.650Z,28.33
2022-08-26T10:45:14.984Z,27.90
2022-08-26T10:47:48.844Z,27.64
2022-08-26T10:50:18.180Z,27.52
2022-08-26T10:53:00.607Z,27.40
2022-08-26T10:55:36.585Z,27.23
2022-08-26T10:58:31.042Z,27.09
2022-08-26T11:01:23.749Z,27.04
2022-08-26T11:04:01.258Z,26.96
2022-08-26T11:06:30.476Z,27.00
2022-08-26T11:08:59.645Z,26.92
2022-08-26T11:11:48.027Z,26.83
2022-08-26T11:14:46.080Z,27.09
2022-08-26T11:17:55.495Z,27.33
2022-08-26T11:20:34.885Z,27.40
2022-08-26T11:23:36.264Z,27.60
2022-08-26T11:26:18.910Z,27.68
2022-08-26T11:29:03.866Z,27.92
2022-08-26T11:31:56.857Z,27.97
2022-08-26T11:34:56.233Z,27.83
2022-08-26T11:37:33.092Z,27.84
2022-08-26T11:40:04.350Z,27.70
2022-08-26T11:42:42.745Z,27.73
2022-08-26T11:45:26.528Z,27.83
2022-08-26T11:47:55.942Z,27.87
2022-08-26T11:50:27.780Z,27.85
2022-08-26T11:53:01.740Z,27.96
2022-08-26T11:55:31.536Z,27.98
2022-08-26T11:58:02.019Z,28.01
2022-08-26T12:00:37.044Z,27.99
2022-08-26T12:03:09.605Z,27.99
2022-08-26T12:05:46.345Z,27.90
2022-08-26T12:08:18.872Z,27.88
2022-08-26T12:10:48.360Z,27.86
2022-08-26T12:13:23.158Z,27.85
2022-08-26T12:15:57.246Z,27.95
2022-08-26T12:18:30.224Z,27.98
2022-08-26T12:21:01.608Z,27.98
2022-08-26T12:23:41.774Z,27.89
2022-08-26T12:26:15.334Z,27.96
2022-08-26T12:28:45.787Z,28.05
2022-08-26T12:31:23.541Z,27.95
2022-08-26T12:33:54.097Z,28.06
2022-08-26T12:36:27.620Z,27.98
2022-08-26T12:38:58.442Z,27.90
2022-08-26T12:41:47.633Z,27.89
2022-08-26T12:44:53.666Z,27.92
2022-08-26T12:47:41.810Z,28.07
2022-08-26T12:50:19.179Z,28.08
2022-08-26T12:52:59.044Z,28.16
2022-08-26T12:55:36.504Z,28.18
2022-08-26T12:58:15.384Z,28.21
2022-08-26T13:00:45.427Z,28.24
2022-08-26T13:03:31.562Z,28.23
2022-08-26T13:06:33.031Z,28.20
2022-08-26T13:09:07.464Z,28.03
2022-08-26T13:11:56.396Z,28.11
2022-08-26T13:14:25.828Z,28.15
2022-08-26T13:16:54.616Z,28.13
2022-08-26T13:19:25.472Z,28.27
2022-08-26T13:21:55.654Z,28.31
2022-08-26T13:24:29.807Z,28.42
2022-08-26T13:26:57.930Z,28.63
2022-08-26T13:29:25.983Z,28.73
2022-08-26T13:31:54.272Z,28.79
2022-08-26T13:34:24.157Z,28.79
2022-08-26T13:36:54.877Z,28.79
2022-08-26T13:39:25.337Z,28.50
2022-08-26T13:41:54.460Z,28.60
2022-08-26T13:44:22.709Z,28.69
2022-08-26T13:46:50.740Z,28.67
2022-08-26T13:49:18.789Z,28.62
2022-08-26T13:51:46.743Z,28.62
2022-08-26T13:54:15.004Z,28.61
2022-08-26T13:56:44.365Z,28.59
2022-08-26T13:59:12.285Z,28.37
2022-08-26T14:01:40.279Z,28.42
2022-08-26T14:04:08.601Z,28.44
2022-08-26T14:06:36.696Z,28.45
2022-08-26T14:09:04.923Z,28.51
2022-08-26T14:11:50.710Z,28.50
2022-08-26T14:14:22.496Z,28.60
2022-08-26T14:16:59.004Z,28.68
2022-08-26T14:19:29.522Z,28.65
2022-08-26T14:21:57.738Z,28.59
2022-08-26T14:24:25.758Z,28.66
2022-08-26T14:26:53.735Z,28.72
2022-08-26T14:29:23.055Z,28.67
2022-08-26T14:31:51.075Z,28.58
2022-08-26T14:34:19.294Z,28.66
2022-08-26T14:36:47.325Z,28.73
2022-08-26T14:39:15.412Z,28.83
2022-08-26T14:41:54.148Z,28.91
2022-08-26T14:44:29.049Z,28.93
2022-08-26T14:46:57.355Z,29.02
2022-08-26T14:49:27.277Z,29.06
2022-08-26T14:51:55.601Z,28.92
2022-08-26T14:54:22.660Z,28.92
2022-08-26T14:56:53.848Z,28.99
2022-08-26T14:59:25.483Z,28.93
2022-08-26T15:01:54.399Z,28.92
2022-08-26T15:04:23.497Z,28.95
2022-08-26T15:06:52.170Z,28.92
2022-08-26T15:09:20.225Z,28.92
2022-08-26T15:11:48.593Z,28.94
2022-08-26T15:14:19.562Z,28.98
2022-08-26T15:16:50.491Z,29.10
2022-08-26T15:19:19.283Z,29.14
2022-08-26T15:21:47.852Z,29.16
2022-08-26T15:24:17.364Z,29.17
2022-08-26T15:26:46.612Z,29.10
2022-08-26T15:29:15.404Z,29.12
2022-08-26T15:31:43.449Z,29.04
2022-08-26T15:34:16.653Z,29.13
2022-08-26T15:36:46.251Z,29.18
2022-08-26T15:39:15.754Z,29.23
2022-08-26T15:41:43.773Z,29.18
2022-08-26T15:44:12.888Z,29.13
2022-08-26T15:46:42.156Z,29.11
2022-08-26T15:49:16.969Z,29.08
2022-08-26T15:51:50.489Z,28.94
2022-08-26T15:54:21.738Z,28.81
2022-08-26T15:56:52.349Z,28.70
2022-08-26T15:59:22.118Z,28.45
2022-08-26T16:01:51.294Z,28.48
2022-08-26T16:04:19.414Z,28.46
2022-08-26T16:06:50.347Z,28.37
2022-08-26T16:09:19.322Z,28.29
2022-08-26T16:11:47.286Z,28.21
2022-08-26T16:14:15.274Z,28.16
2022-08-26T16:16:43.288Z,28.10
2022-08-26T16:19:12.519Z,28.02
2022-08-26T16:21:41.193Z,27.97
2022-08-26T16:24:11.553Z,27.94
2022-08-26T16:26:42.191Z,27.92
2022-08-26T16:29:12.303Z,27.81
2022-08-26T16:31:41.021Z,27.77
2022-08-26T16:34:09.556Z,27.71
2022-08-26T16:36:38.756Z,27.55
2022-08-26T16:39:08.495Z,27.58
2022-08-26T16:41:37.865Z,27.55
2022-08-26T16:44:07.335Z,27.52
2022-08-26T16:46:36.228Z,27.48
2022-08-26T16:49:04.808Z,27.35
2022-08-26T16:51:37.695Z,27.38
2022-08-26T16:54:07.245Z,27.31
2022-08-26T16:56:37.756Z,27.28
2022-08-26T16:59:07.454Z,27.25
2022-08-26T17:01:35.534Z,27.19
2022-08-26T17:04:03.998Z,26.94
2022-08-26T17:06:32.179Z,26.98
2022-08-26T17:09:00.199Z,27.06
2022-08-26T17:11:28.194Z,26.94
2022-08-26T17:13:57.929Z,26.92
2022-08-26T17:16:27.052Z,26.62
2022-08-26T17:18:56.260Z,26.59
2022-08-26T17:21:24.300Z,26.73
2022-08-26T17:23:52.538Z,26.81
2022-08-26T17:26:20.577Z,26.84
2022-08-26T17:28:48.564Z,26.82
2022-08-26T17:31:18.072Z,26.82
2022-08-26T17:33:50.307Z,26.72
2022-08-26T17:36:22.982Z,26.81
2022-08-26T17:38:55.821Z,26.78
2022-08-26T17:41:23.844Z,26.74
2022-08-26T17:43:51.806Z,26.74
2022-08-26T17:46:21.294Z,26.73
2022-08-26T17:48:49.521Z,26.73
2022-08-26T17:51:21.542Z,26.46
2022-08-26T17:53:49.752Z,26.55
2022-08-26T17:56:19.847Z,26.59
2022-08-26T17:58:51.274Z,26.56
2022-08-26T18:01:21.727Z,26.57
2022-08-26T18:03:50.280Z,26.60
2022-08-26T18:06:18.515Z,26.56
2022-08-26T18:08:46.783Z,26.56
2022-08-26T18:11:16.715Z,26.49
2022-08-26T18:13:46.962Z,26.47
2022-08-26T18:16:17.675Z,26.49
2022-08-26T18:18:48.188Z,26.47
2022-08-26T18:21:18.656Z,26.46
2022-08-26T18:23:47.919Z,26.41
2022-08-26T18:26:19.853Z,26.43
2022-08-26T18:28:47.978Z,26.34
2022-08-26T18:31:16.438Z,26.40
2022-08-26T18:33:44.521Z,26.42
2022-08-26T18:36:19.641Z,26.40
2022-08-26T18:38:48.013Z,26.38
2022-08-26T18:41:20.857Z,26.29
2022-08-26T18:43:50.608Z,26.26
2022-08-26T18:46:20.214Z,26.38
2022-08-26T18:48:50.831Z,26.32
2022-08-26T18:51:23.648Z,26.25
2022-08-26T18:53:51.843Z,26.29
2022-08-26T18:56:20.097Z,26.16
2022-08-26T18:58:48.718Z,26.15
2022-08-26T19:01:17.756Z,26.18
2022-08-26T19:03:46.683Z,26.15
2022-08-26T19:06:15.771Z,26.14
2022-08-26T19:08:45.814Z,26.15
2022-08-26T19:11:32.408Z,25.93
2022-08-26T19:14:07.565Z,26.07
2022-08-26T19:16:35.760Z,26.09
2022-08-26T19:19:04.319Z,26.08
2022-08-26T19:21:33.841Z,26.05
2022-08-26T19:24:05.494Z,26.05
2022-08-26T19:26:34.339Z,26.00
2022-08-26T19:29:02.848Z,25.95
2022-08-26T19:31:31.281Z,25.96
2022-08-26T19:33:59.585Z,25.93
2022-08-26T19:36:29.173Z,25.90
2022-08-26T19:38:57.490Z,25.79
2022-08-26T19:41:34.183Z,25.81
2022-08-26T19:44:08.190Z,25.79
2022-08-26T19:49:10.074Z,25.74
2022-08-26T19:51:38.117Z,25.74
2022-08-26T19:54:06.498Z,25.67
2022-08-26T19:56:36.588Z,25.54
2022-08-26T19:59:04.722Z,25.34
2022-08-26T20:01:32.799Z,25.39
2022-08-26T20:04:00.966Z,25.39
2022-08-26T20:06:29.135Z,25.31
2022-08-26T20:08:57.281Z,25.31
2022-08-26T20:11:25.320Z,25.15
2022-08-26T20:13:55.387Z,24.90
2022-08-26T20:16:23.510Z,24.95
2022-08-26T20:19:09.330Z,25.07
2022-08-26T20:21:39.917Z,24.53
2022-08-26T20:24:10.375Z,24.77
2022-08-26T20:26:40.360Z,24.76
2022-08-26T20:29:10.883Z,24.67
2022-08-26T20:31:39.385Z,24.81
2022-08-26T20:34:07.944Z,24.66
2022-08-26T20:36:36.150Z,24.72
2022-08-26T20:39:05.781Z,24.63
2022-08-26T20:41:34.122Z,24.61
2022-08-26T20:44:02.088Z,24.62
2022-08-26T20:46:31.490Z,24.61
2022-08-26T20:48:59.487Z,24.57
2022-08-26T20:51:29.438Z,24.63
2022-08-26T20:53:57.429Z,24.68
2022-08-26T20:56:25.555Z,24.57
2022-08-26T20:58:55.250Z,24.55
2022-08-26T21:01:25.249Z,24.57
2022-08-26T21:03:55.382Z,24.56
2022-08-26T21:06:23.576Z,24.54
2022-08-26T21:08:51.915Z,24.57
2022-08-26T21:11:21.093Z,24.54
2022-08-26T21:14:04.340Z,24.46
2022-08-26T21:16:36.067Z,24.51
2022-08-26T21:19:08.362Z,24.56
2022-08-26T21:21:36.487Z,24.56
2022-08-26T21:24:05.617Z,24.40
2022-08-26T21:26:33.571Z,24.40
2022-08-26T21:29:03.323Z,24.46
2022-08-26T21:31:32.210Z,24.34
2022-08-26T21:34:00.790Z,24.42
2022-08-26T21:36:30.301Z,24.35
2022-08-26T21:38:59.355Z,24.30
2022-08-26T21:41:28.116Z,24.28
2022-08-26T21:43:59.268Z,24.30
2022-08-26T21:46:29.134Z,24.36
2022-08-26T21:48:59.086Z,24.31
2022-08-26T21:51:30.958Z,24.32
2022-08-26T21:54:00.336Z,24.33
2022-08-26T21:56:31.619Z,24.23
2022-08-26T21:59:00.943Z,24.20
2022-08-26T22:01:31.950Z,24.17
2022-08-26T22:04:00.096Z,24.21
2022-08-26T22:06:29.922Z,24.20
2022-08-26T22:08:58.520Z,24.21
2022-08-26T22:11:28.467Z,24.07
2022-08-26T22:13:56.985Z,24.03
2022-08-26T22:16:26.927Z,23.89
2022-08-26T22:18:55.169Z,23.90
2022-08-26T22:21:25.594Z,23.87
2022-08-26T22:23:57.928Z,23.79
2022-08-26T22:26:28.803Z,23.63
2022-08-26T22:28:58.892Z,23.56
2022-08-26T22:31:37.034Z,23.22
2022-08-26T22:34:09.519Z,23.11
2022-08-26T22:36:42.907Z,23.09
2022-08-26T22:39:14.367Z,22.76
2022-08-26T22:41:43.067Z,22.79
2022-08-26T22:44:11.715Z,22.50
2022-08-26T22:46:40.316Z,22.46
2022-08-26T22:49:09.835Z,22.33
2022-08-26T22:51:37.954Z,22.39
2022-08-26T22:54:06.555Z,22.53
2022-08-26T22:56:36.581Z,22.47
2022-08-26T22:59:05.558Z,22.54
2022-08-26T23:01:36.820Z,22.73
2022-08-26T23:04:06.869Z,22.80
2022-08-26T23:06:36.626Z,22.77
2022-08-26T23:09:05.569Z,22.75
2022-08-26T23:11:33.638Z,22.71
2022-08-26T23:14:06.181Z,22.69
2022-08-26T23:16:39.331Z,22.55
2022-08-26T23:19:08.333Z,22.58
2022-08-26T23:21:36.446Z,22.59
2022-08-26T23:24:05.105Z,22.58
2022-08-26T23:26:33.268Z,22.64
2022-08-26T23:29:03.179Z,22.61
2022-08-26T23:31:31.534Z,22.38
2022-08-26T23:34:17.313Z,22.21
2022-08-26T23:36:46.280Z,22.35
2022-08-26T23:39:15.499Z,22.46
2022-08-26T23:41:43.590Z,22.30
2022-08-26T23:44:13.467Z,22.22
2022-08-26T23:46:41.440Z,22.22
2022-08-26T23:49:09.505Z,22.30
2022-08-26T23:51:55.551Z,22.31
2022-08-26T23:54:24.169Z,22.29
2022-08-26T23:56:52.089Z,22.15
2022-08-26T23:59:21.596Z,22.18
